Time;durP1;ratioP1;P1;durP2;ratioP2;P2;SDS_P1;SDS_P2;PMS_P1;PMS_P2;Temp;Humidity;BMP_temperature;BMP_pressure;BME280_temperature;BME280_humidity;BME280_pressure;Samples;Min_cycle;Max_cycle;Signal;HPM_P1;HPM_P2
2022/01/26 00:06:59;;;;;;;19.95;8.07;;;;;;;-3.35;43.67;100631.09;3146027;28;20044;-60
2022/01/26 00:08:31;;;;;;;21.75;8.25;;;;;;;-3.45;43.41;100605.38;3145663;28;20796;-59
2022/01/26 00:10:04;;;;;;;17.80;7.25;;;;;;;-3.25;43.53;100640.69;3147349;28;20063;-59
2022/01/26 00:11:36;;;;;;;16.30;7.55;;;;;;;-3.24;43.42;100635.63;3149283;28;20052;-59
2022/01/26 00:13:08;;;;;;;18.13;7.55;;;;;;;-3.24;43.41;100629.66;3144050;28;20052;-59
2022/01/26 00:14:42;;;;;;;16.45;7.57;;;;;;;-3.26;43.32;100626.22;3143454;28;20497;-59
2022/01/26 00:16:24;;;;;;;17.30;6.65;;;;;;;-3.18;43.23;100628.94;3148519;28;20167;-60
2022/01/26 00:17:57;;;;;;;14.52;6.68;;;;;;;-3.35;43.12;100598.81;3152939;28;20051;-59
2022/01/26 00:19:45;;;;;;;17.60;7.22;;;;;;;-3.15;43.08;100632.41;3149362;28;20086;-60
2022/01/26 00:21:26;;;;;;;17.60;7.63;;;;;;;-3.18;42.89;100624.72;3143643;28;20052;-59
2022/01/26 00:23:18;;;;;;;15.15;6.35;;;;;;;-3.15;43.00;100632.41;3145976;28;20046;-60
2022/01/26 00:25:05;;;;;;;17.83;7.22;;;;;;;-3.16;42.99;100623.06;3146197;28;20094;-60
2022/01/26 00:27:00;;;;;;;15.27;6.53;;;;;;;-3.09;42.68;100629.16;3142007;28;20143;-59
2022/01/26 00:28:35;;;;;;;13.45;6.60;;;;;;;-3.09;42.72;100619.81;3150517;28;20066;-59
2022/01/26 00:39:17;;;;;;;15.00;6.75;;;;;;;-3.01;42.27;100617.47;3132033;28;20186;-59
2022/01/26 00:41:02;;;;;;;15.13;6.57;;;;;;;-2.94;42.19;100613.38;3144887;28;20771;-60
2022/01/26 00:42:37;;;;;;;16.48;6.57;;;;;;;-2.94;42.16;100623.56;3143338;28;20826;-59
2022/01/26 00:44:10;;;;;;;13.20;6.10;;;;;;;-2.95;42.22;100612.50;3147751;28;20422;-60
2022/01/26 00:45:41;;;;;;;16.15;6.18;;;;;;;-2.95;42.01;100614.19;3142587;28;20389;-60
2022/01/26 00:47:14;;;;;;;13.93;6.03;;;;;;;-2.92;42.44;100615.13;3144869;28;20510;-59
2022/01/26 00:48:46;;;;;;;15.77;6.32;;;;;;;-2.92;42.25;100612.56;3146156;28;20053;-60
2022/01/26 00:50:18;;;;;;;13.13;6.18;;;;;;;-2.88;42.25;100609.25;3143411;28;20056;-60
2022/01/26 00:51:52;;;;;;;15.27;7.20;;;;;;;-2.89;42.18;100607.53;3146796;28;20477;-59
2022/01/26 00:53:30;;;;;;;15.07;6.32;;;;;;;-2.92;42.33;100607.47;3145815;28;20048;-60
2022/01/26 00:55:02;;;;;;;14.30;5.93;;;;;;;-2.93;42.23;100604.88;3143540;28;20075;-59
2022/01/26 00:56:34;;;;;;;16.23;6.22;;;;;;;-2.94;42.37;100598.94;3145691;28;20255;-60
2022/01/26 00:58:06;;;;;;;12.57;5.88;;;;;;;-2.92;42.38;100597.28;3139554;28;20087;-59
2022/01/26 00:59:38;;;;;;;17.23;6.55;;;;;;;-2.91;42.35;100603.22;3142854;28;20120;-59
2022/01/26 01:01:10;;;;;;;15.63;7.15;;;;;;;-2.92;42.24;100599.84;3144564;28;20142;-59
2022/01/26 01:02:42;;;;;;;13.18;5.97;;;;;;;-2.95;42.30;100592.13;3143825;28;20234;-59
2022/01/26 01:04:14;;;;;;;15.27;6.68;;;;;;;-2.93;42.26;100595.53;3149027;28;20062;-59
2022/01/26 01:05:53;;;;;;;16.08;6.53;;;;;;;-2.92;42.45;100593.88;3141766;28;20110;-59
2022/01/26 01:07:26;;;;;;;15.73;6.35;;;;;;;-2.91;42.26;100598.13;3143707;28;20394;-62
2022/01/26 01:08:58;;;;;;;;;;;;;;;-3.08;42.64;100592.66;3146326;28;20090;-59
2022/01/26 01:10:30;;;;;;;14.10;6.60;;;;;;;-3.04;42.49;100600.41;3139926;28;19925;-59
2022/01/26 01:12:03;;;;;;;13.90;6.45;;;;;;;-3.22;42.46;100547.38;3147997;28;20125;-59
2022/01/26 01:13:38;;;;;;;15.02;6.72;;;;;;;-2.97;42.51;100581.88;3141842;28;20053;-59
2022/01/26 01:15:10;;;;;;;14.05;6.00;;;;;;;-3.13;42.42;100550.94;3142649;28;20145;-59
2022/01/26 01:16:42;;;;;;;14.50;6.45;;;;;;;-2.92;42.30;100583.69;3148085;28;20044;-59
2022/01/26 01:18:20;;;;;;;19.77;7.07;;;;;;;-2.92;42.23;100578.59;3141764;28;20437;-59
2022/01/26 01:20:10;;;;;;;13.82;6.30;;;;;;;-2.93;42.14;100577.69;3146492;28;20118;-58
2022/01/26 01:24:07;;;;;;;15.98;6.47;;;;;;;-2.94;42.10;100567.50;3145202;28;20083;-59
2022/01/26 01:28:13;;;;;;;14.30;5.88;;;;;;;-3.01;42.09;100567.34;3117194;28;20599;-59
2022/01/26 01:29:57;;;;;;;12.35;5.57;;;;;;;-3.01;41.98;100562.25;3116363;28;20045;-59
2022/01/26 01:31:41;;;;;;;13.63;6.07;;;;;;;-3.00;41.95;100555.47;3115912;28;20053;-59
2022/01/26 01:33:18;;;;;;;16.98;6.65;;;;;;;-3.00;41.82;100563.97;3133333;28;20044;-59
2022/01/26 01:34:50;;;;;;;17.20;7.05;;;;;;;-2.98;41.81;100557.22;3142737;28;20489;-59
2022/01/26 01:36:23;;;;;;;18.30;6.78;;;;;;;-2.98;41.61;100562.31;3147641;28;20048;-59
2022/01/26 01:37:55;;;;;;;19.92;7.47;;;;;;;-3.00;41.60;100556.31;3142083;28;20083;-60
2022/01/26 01:39:29;;;;;;;16.55;7.25;;;;;;;-2.95;41.63;100560.69;3143366;28;20051;-59
2022/01/26 01:41:01;;;;;;;14.18;6.78;;;;;;;-2.97;41.54;100558.94;3147094;28;20447;-59
2022/01/26 01:42:33;;;;;;;13.95;6.10;;;;;;;-2.99;41.50;100558.06;3139675;28;20048;-59
2022/01/26 01:44:06;;;;;;;15.45;6.30;;;;;;;-2.99;41.48;100557.19;3144447;28;20113;-59
2022/01/26 01:45:41;;;;;;;14.27;6.18;;;;;;;-3.02;41.22;100552.91;3143791;28;20103;-59
2022/01/26 01:47:13;;;;;;;12.55;5.72;;;;;;;-3.01;41.43;100557.16;3146702;28;20083;-61
2022/01/26 01:48:45;;;;;;;14.45;5.85;;;;;;;-3.02;41.27;100557.13;3148087;28;20054;-60
2022/01/26 01:50:17;;;;;;;14.38;6.32;;;;;;;-3.02;41.46;100563.09;3142841;28;20048;-61
2022/01/26 01:51:53;;;;;;;12.95;5.90;;;;;;;-3.04;41.33;100561.34;3145645;28;20086;-60
2022/01/26 01:53:32;;;;;;;13.07;5.88;;;;;;;-3.05;41.39;100560.44;3143484;28;20102;-59
2022/01/26 01:55:07;;;;;;;13.60;5.80;;;;;;;-3.08;41.27;100549.34;3139602;28;20113;-59
2022/01/26 01:56:40;;;;;;;16.38;6.47;;;;;;;-3.11;41.34;100550.13;3146580;28;20048;-59
2022/01/26 01:58:12;;;;;;;12.85;5.85;;;;;;;-3.14;41.40;100552.59;3145305;28;20056;-59
2022/01/26 01:59:44;;;;;;;11.77;5.53;;;;;;;-3.13;41.30;100546.72;3145926;28;20080;-59
2022/01/26 02:01:16;;;;;;;15.75;5.95;;;;;;;-3.14;41.46;100550.06;3147890;28;20487;-59
2022/01/26 02:02:48;;;;;;;15.60;6.00;;;;;;;-3.14;41.22;100542.41;3139512;28;20084;-59
2022/01/26 02:04:20;;;;;;;14.10;6.68;;;;;;;-3.14;41.29;100534.78;3145889;28;20098;-59
2022/01/26 02:05:52;;;;;;;11.23;5.40;;;;;;;-3.11;41.28;100545.03;3144920;28;20091;-59
2022/01/26 02:07:24;;;;;;;12.20;5.82;;;;;;;-3.17;41.12;100528.75;3141055;28;20091;-59
2022/01/26 02:08:56;;;;;;;12.27;5.70;;;;;;;-3.13;41.24;100543.31;3146840;28;20056;-59
2022/01/26 02:10:31;;;;;;;13.38;6.40;;;;;;;-3.09;41.13;100542.53;3139304;28;20135;-59
2022/01/26 02:12:13;;;;;;;12.32;5.93;;;;;;;-3.07;41.08;100538.34;3145307;28;20071;-59
2022/01/26 02:13:53;;;;;;;13.18;5.57;;;;;;;-3.08;41.13;100537.47;3143867;28;20107;-60
2022/01/26 02:15:31;;;;;;;14.82;5.95;;;;;;;-3.06;41.13;100534.97;3146109;28;20052;-60
2022/01/26 02:17:21;;;;;;;11.80;5.72;;;;;;;-3.06;41.10;100533.25;3148497;28;20060;-60
2022/01/26 02:19:17;;;;;;;11.40;5.05;;;;;;;-3.06;41.24;100540.91;3139309;28;20048;-59
2022/01/26 02:21:23;;;;;;;13.10;5.45;;;;;;;-3.04;41.12;100535.84;3146488;28;20048;-60
2022/01/26 02:51:01;;;;;;;12.90;6.07;;;;;;;-2.81;40.38;100516.81;3135062;28;20056;-60
2022/01/26 02:52:50;;;;;;;13.15;5.18;;;;;;;-2.79;40.33;100514.28;3142469;28;20089;-60
2022/01/26 02:56:16;;;;;;;18.58;5.38;;;;;;;-2.79;40.43;100509.19;3139280;28;20055;-59
2022/01/26 02:58:08;;;;;;;17.23;6.03;;;;;;;-2.72;40.23;100518.69;3140968;28;20205;-59
2022/01/26 03:00:11;;;;;;;14.45;5.53;;;;;;;-2.74;40.27;100507.59;3137986;28;20229;-59
2022/01/26 03:01:50;;;;;;;13.45;5.53;;;;;;;-2.71;40.29;100517.00;3141736;28;20087;-60
2022/01/26 03:03:26;;;;;;;18.05;5.28;;;;;;;-2.71;40.25;100511.91;3136992;28;20050;-60
2022/01/26 03:05:00;;;;;;;12.18;5.40;;;;;;;-2.69;40.25;100508.56;3143628;28;20149;-59
2022/01/26 03:06:39;;;;;;;15.35;5.78;;;;;;;-2.66;40.31;100505.19;3143061;28;20477;-60
2022/01/26 03:08:12;;;;;;;15.88;5.65;;;;;;;-2.66;40.37;100506.06;3140233;28;20465;-60
2022/01/26 03:09:48;;;;;;;;;;;;;;;-2.83;40.44;100500.63;3145191;28;20787;-59
2022/01/26 03:11:26;;;;;;;12.93;5.65;;;;;;;-2.75;40.72;100498.25;3139718;28;20047;-60
2022/01/26 03:13:03;;;;;;;12.05;5.80;;;;;;;-2.70;40.53;100490.66;3144473;28;20507;-59
2022/01/26 03:14:44;;;;;;;15.23;5.72;;;;;;;-2.65;40.60;100494.16;3137173;28;20060;-60
2022/01/26 03:16:23;;;;;;;13.45;5.28;;;;;;;-2.60;40.55;100492.59;3141498;28;20048;-59
2022/01/26 03:18:25;;;;;;;12.30;5.72;;;;;;;-2.57;40.60;100490.94;3147649;28;20059;-60
2022/01/26 03:20:04;;;;;;;14.85;6.38;;;;;;;-2.56;40.53;100487.56;3140274;28;20536;-59
2022/01/26 03:21:45;;;;;;;14.27;5.97;;;;;;;-2.53;40.61;100484.19;3144006;28;20056;-61
2022/01/26 03:28:47;;;;;;;13.85;6.70;;;;;;;-2.41;40.46;100481.03;3118141;28;20147;-60
2022/01/26 03:30:34;;;;;;;13.60;5.90;;;;;;;-2.36;40.47;100487.94;3144560;28;20602;-59
2022/01/26 03:34:00;;;;;;;15.90;6.38;;;;;;;-2.38;40.48;100465.78;3142893;28;20347;-59
2022/01/26 03:35:42;;;;;;;13.20;5.50;;;;;;;-2.29;40.44;100474.44;3136655;28;20137;-59
2022/01/26 03:37:14;;;;;;;12.90;5.82;;;;;;;-2.24;40.28;100471.13;3145086;28;20121;-59
2022/01/26 03:38:50;;;;;;;14.13;5.95;;;;;;;-2.18;40.27;100481.44;3139028;28;20502;-60
2022/01/26 03:40:30;;;;;;;12.30;5.47;;;;;;;-2.18;40.29;100472.09;3143420;28;20071;-59
2022/01/26 03:42:05;;;;;;;12.48;5.78;;;;;;;-2.14;40.11;100468.75;3143961;28;20211;-60
2022/01/26 03:43:38;;;;;;;10.90;5.10;;;;;;;-2.10;39.93;100479.84;3136092;28;20151;-60
2022/01/26 03:45:10;;;;;;;13.25;5.13;;;;;;;-2.10;39.86;100470.53;3146100;28;20048;-60
2022/01/26 03:46:43;;;;;;;13.35;5.18;;;;;;;-2.08;39.99;100470.53;3138364;28;20060;-59
2022/01/26 03:48:16;;;;;;;11.40;5.28;;;;;;;-2.07;39.87;100475.69;3140414;28;20048;-59
2022/01/26 03:49:48;;;;;;;10.68;4.90;;;;;;;-2.05;39.90;100478.25;3144406;28;20137;-59
2022/01/26 03:51:19;;;;;;;15.10;5.78;;;;;;;-2.01;39.97;100472.38;3136737;28;20105;-60
2022/01/26 03:52:51;;;;;;;10.88;5.40;;;;;;;-2.00;39.82;100474.09;3142297;28;20048;-60
2022/01/26 03:54:24;;;;;;;14.70;5.57;;;;;;;-2.00;39.74;100473.22;3141376;28;20134;-59
2022/01/26 03:55:56;;;;;;;12.88;5.93;;;;;;;-1.97;39.84;100470.72;3137593;28;20240;-59
2022/01/26 03:57:28;;;;;;;14.45;5.78;;;;;;;-1.97;39.95;100466.47;3145194;28;20101;-59
2022/01/26 03:59:01;;;;;;;12.48;5.72;;;;;;;-1.96;40.07;100477.53;3146928;28;20153;-60
2022/01/26 04:00:33;;;;;;;16.20;6.22;;;;;;;-1.96;40.13;100475.00;3142424;28;20052;-59
2022/01/26 04:02:06;;;;;;;12.20;5.65;;;;;;;-2.00;40.07;100465.56;3140555;28;20109;-60
2022/01/26 04:03:38;;;;;;;13.33;6.57;;;;;;;-1.95;40.05;100469.94;3137122;28;20431;-60
2022/01/26 04:05:12;;;;;;;18.52;6.38;;;;;;;-1.92;40.17;100476.78;3143966;28;20053;-59
2022/01/26 04:06:44;;;;;;;16.08;6.72;;;;;;;-1.90;40.13;100475.09;3142694;28;20052;-60
2022/01/26 04:08:20;;;;;;;18.65;7.43;;;;;;;-1.90;40.34;100480.19;3142537;28;20051;-60
2022/01/26 04:10:00;;;;;;;16.13;6.47;;;;;;;-2.24;40.31;100417.56;3144201;28;20531;-62
2022/01/26 04:11:37;;;;;;;14.70;6.07;;;;;;;-1.89;40.05;100479.38;3136320;28;20473;-60
2022/01/26 04:13:09;;;;;;;15.07;6.68;;;;;;;-1.89;40.25;100469.16;3143880;28;20052;-60
2022/01/26 04:14:45;;;;;;;13.27;6.40;;;;;;;-2.04;39.97;100454.47;3146059;28;20048;-60
2022/01/26 04:16:17;;;;;;;13.25;6.25;;;;;;;-1.87;40.01;100470.03;3138243;28;20043;-59
2022/01/26 04:17:49;;;;;;;12.85;5.93;;;;;;;-1.87;40.02;100473.44;3143408;28;20364;-59
2022/01/26 04:19:22;;;;;;;13.77;6.13;;;;;;;-1.89;40.17;100466.63;3135632;28;20063;-59
2022/01/26 04:20:58;;;;;;;13.13;6.22;;;;;;;-1.91;39.87;100465.72;3139659;28;20662;-59
2022/01/26 04:22:36;;;;;;;11.52;5.65;;;;;;;-1.91;39.84;100465.72;3144286;28;20411;-59
2022/01/26 04:24:14;;;;;;;13.40;5.90;;;;;;;-1.93;39.83;100472.47;3137132;28;20052;-59
2022/01/26 04:25:48;;;;;;;16.15;6.20;;;;;;;-1.95;39.73;100469.94;3145111;28;20052;-59
2022/01/26 04:27:26;;;;;;;13.27;6.43;;;;;;;-1.96;39.72;100465.63;3136231;28;20437;-59
2022/01/26 04:29:02;;;;;;;13.30;5.40;;;;;;;-1.96;39.69;100462.22;3144467;28;20048;-60
2022/01/26 04:30:34;;;;;;;12.00;5.85;;;;;;;-1.96;39.69;100459.66;3142080;28;20627;-59
2022/01/26 04:32:08;;;;;;;13.75;5.43;;;;;;;-1.99;39.59;100460.47;3136391;28;20063;-59
2022/01/26 04:33:39;;;;;;;15.63;5.32;;;;;;;-1.99;39.67;100459.63;3144108;28;20400;-59
2022/01/26 04:35:12;;;;;;;12.05;5.57;;;;;;;-1.97;39.65;100457.97;3139884;28;20281;-61
2022/01/26 04:36:48;;;;;;;12.88;5.55;;;;;;;-2.03;39.75;100457.88;3139857;28;20070;-59
2022/01/26 04:38:25;;;;;;;11.63;5.90;;;;;;;-2.01;39.85;100453.63;3145856;28;20629;-59
2022/01/26 04:40:00;;;;;;;13.35;6.00;;;;;;;-2.03;39.90;100456.16;3136664;28;20052;-59
2022/01/26 04:41:38;;;;;;;15.20;7.18;;;;;;;-2.02;40.10;100455.31;3141832;28;20052;-59
2022/01/26 04:43:16;;;;;;;15.45;7.07;;;;;;;-2.03;40.27;100455.31;3137117;28;20517;-61
2022/01/26 04:44:54;;;;;;;15.15;6.30;;;;;;;-2.07;40.33;100447.63;3139632;28;20106;-61
2022/01/26 04:46:27;;;;;;;18.00;7.57;;;;;;;-2.03;40.34;100460.41;3143654;28;20125;-61
2022/01/26 04:47:59;;;;;;;17.95;7.75;;;;;;;-2.02;40.44;100459.56;3137285;28;20075;-61
2022/01/26 04:49:32;;;;;;;15.30;6.25;;;;;;;-1.99;40.57;100462.19;3141138;28;20049;-61
2022/01/26 04:51:04;;;;;;;15.50;7.05;;;;;;;-1.99;40.38;100467.28;3138372;28;20052;-61
2022/01/26 04:52:37;;;;;;;16.33;6.45;;;;;;;-1.96;40.38;100468.19;3144880;28;20055;-61
2022/01/26 04:54:09;;;;;;;14.65;5.93;;;;;;;-1.95;40.38;100466.47;3144069;28;20066;-61
2022/01/26 04:55:41;;;;;;;13.23;6.00;;;;;;;-1.92;40.29;100464.00;3135501;28;20063;-61
2022/01/26 04:57:14;;;;;;;12.43;5.32;;;;;;;-1.89;39.95;100461.50;3139438;28;20082;-60
2022/01/26 04:58:47;;;;;;;11.18;5.15;;;;;;;-1.89;39.98;100461.50;3141399;28;20076;-61
2022/01/26 05:00:19;;;;;;;12.38;5.60;;;;;;;-2.09;39.89;100423.75;3136163;28;20056;-60
2022/01/26 05:01:51;;;;;;;12.55;5.78;;;;;;;-1.87;39.85;100454.72;3142956;28;20402;-61
2022/01/26 05:03:23;;;;;;;10.32;5.15;;;;;;;-1.88;39.75;100446.19;3139485;28;20234;-60
2022/01/26 05:04:55;;;;;;;14.20;5.88;;;;;;;-1.86;39.87;100453.91;3140277;28;20056;-60
2022/01/26 05:06:27;;;;;;;11.95;5.78;;;;;;;-1.88;39.71;100446.19;3141239;28;20054;-60
2022/01/26 05:07:59;;;;;;;11.77;5.47;;;;;;;-1.88;39.79;100447.91;3135703;28;20056;-61
2022/01/26 05:09:31;;;;;;;12.65;5.82;;;;;;;-1.91;39.60;100451.25;3141066;28;20063;-61
2022/01/26 05:11:05;;;;;;;13.60;5.53;;;;;;;-1.92;39.75;100448.69;3142641;28;20551;-60
2022/01/26 05:12:39;;;;;;;14.15;5.68;;;;;;;-1.92;39.66;100459.75;3148444;28;20068;-60
2022/01/26 05:14:11;;;;;;;12.80;5.82;;;;;;;-1.91;39.90;100452.97;3144390;28;20572;-59
2022/01/26 05:15:44;;;;;;;14.30;5.63;;;;;;;-2.03;39.89;100437.44;3135911;28;20052;-60
2022/01/26 05:17:19;;;;;;;12.90;5.72;;;;;;;-2.08;39.91;100432.25;3140332;28;20079;-60
2022/01/26 05:18:52;;;;;;;17.98;6.32;;;;;;;-1.88;39.81;100464.06;3140273;28;20548;-60
2022/01/26 05:20:24;;;;;;;;;;;;;;;-2.03;40.00;100460.41;3138439;28;20056;-60
2022/01/26 05:21:58;;;;;;;15.23;6.57;;;;;;;-1.97;40.30;100456.28;3145615;28;19990;-60
2022/01/26 05:23:30;;;;;;;14.10;6.40;;;;;;;-1.90;40.25;100462.31;3136817;28;20395;-60
2022/01/26 05:25:02;;;;;;;15.30;6.30;;;;;;;-1.87;40.17;100453.00;3150106;28;20351;-60
2022/01/26 05:26:34;;;;;;;13.57;6.18;;;;;;;-2.21;40.24;100394.63;3143347;28;20073;-60
2022/01/26 05:28:07;;;;;;;15.23;6.78;;;;;;;-1.78;40.20;100469.31;3136621;28;20052;-60
2022/01/26 05:29:39;;;;;;;15.82;6.60;;;;;;;-1.81;40.28;100447.16;3140953;28;20051;-60
2022/01/26 05:31:11;;;;;;;14.38;6.65;;;;;;;-1.77;40.35;100454.03;3144531;28;20055;-61
2022/01/26 05:32:43;;;;;;;20.88;6.70;;;;;;;-1.73;40.33;100454.94;3141036;28;20056;-58
2022/01/26 05:34:16;;;;;;;19.65;6.53;;;;;;;-1.74;40.27;100446.41;3143617;28;20154;-59
2022/01/26 05:35:48;;;;;;;15.13;6.93;;;;;;;-1.72;40.34;100446.44;3140865;28;20044;-60
2022/01/26 05:37:20;;;;;;;16.55;6.70;;;;;;;-1.71;40.46;100443.91;3137865;28;20044;-62
2022/01/26 05:38:52;;;;;;;16.33;7.40;;;;;;;-1.67;40.37;100452.47;3142664;28;20139;-60
2022/01/26 05:40:24;;;;;;;17.85;7.40;;;;;;;-1.66;40.37;100452.47;3147208;28;20121;-61
2022/01/26 05:41:57;;;;;;;17.25;7.40;;;;;;;-1.64;40.24;100450.81;3145187;28;20420;-58
2022/01/26 05:43:30;;;;;;;16.45;7.07;;;;;;;-1.61;40.16;100450.84;3138151;28;20048;-60
2022/01/26 05:45:05;;;;;;;15.93;7.30;;;;;;;-1.59;40.13;100457.69;3139404;28;20527;-62
2022/01/26 05:46:41;;;;;;;15.35;6.82;;;;;;;-1.57;40.02;100454.31;3141390;28;20091;-60
2022/01/26 05:48:13;;;;;;;17.90;6.95;;;;;;;-1.58;40.09;100446.63;3136185;28;20143;-60
2022/01/26 05:49:45;;;;;;;17.88;7.63;;;;;;;-1.55;40.00;100449.25;3139087;28;20100;-59
2022/01/26 05:51:18;;;;;;;15.30;6.68;;;;;;;-1.53;39.97;100457.78;3140160;28;20550;-60
2022/01/26 05:52:50;;;;;;;17.77;5.90;;;;;;;-1.49;39.94;100454.44;3136487;28;20063;-60
2022/01/26 05:54:23;;;;;;;18.80;7.68;;;;;;;-1.47;39.75;100450.22;3141312;28;20048;-60
2022/01/26 05:55:55;;;;;;;14.60;6.63;;;;;;;-1.47;39.75;100447.66;3135776;28;20143;-60
2022/01/26 05:57:27;;;;;;;17.38;6.35;;;;;;;-1.47;39.82;100452.78;3139111;28;20064;-60
2022/01/26 05:59:00;;;;;;;13.57;5.97;;;;;;;-1.42;39.79;100444.34;3140692;28;20506;-59
2022/01/26 06:00:32;;;;;;;20.30;7.85;;;;;;;-1.43;39.85;100452.81;3138084;28;20048;-60
2022/01/26 06:02:05;;;;;;;16.38;6.68;;;;;;;-1.40;39.70;100454.56;3144312;28;20585;-62
2022/01/26 06:03:37;;;;;;;17.65;7.85;;;;;;;-1.50;39.89;100437.41;3147699;28;20075;-62
2022/01/26 06:05:09;;;;;;;17.08;6.97;;;;;;;-1.36;39.83;100461.44;3149085;28;20047;-61
2022/01/26 06:06:41;;;;;;;26.90;7.60;;;;;;;-1.44;39.81;100451.09;3153323;28;20063;-61
2022/01/26 06:08:13;;;;;;;14.82;7.22;;;;;;;-1.34;39.75;100464.84;3149697;28;20302;-58
2022/01/26 06:09:45;;;;;;;15.40;6.90;;;;;;;-1.31;39.61;100461.50;3149366;28;20051;-58
2022/01/26 06:11:17;;;;;;;16.35;7.05;;;;;;;-1.34;39.76;100451.22;3153473;28;20197;-58
2022/01/26 06:12:49;;;;;;;13.55;6.65;;;;;;;-1.27;39.84;100461.56;3144508;28;20141;-59
2022/01/26 06:14:22;;;;;;;13.32;5.57;;;;;;;-1.24;39.83;100455.63;3151488;28;20058;-58
2022/01/26 06:15:54;;;;;;;14.52;5.60;;;;;;;-1.23;39.74;100470.13;3147272;28;20064;-59
2022/01/26 06:17:26;;;;;;;20.40;6.88;;;;;;;-1.21;39.74;100465.91;3149982;28;20432;-59
2022/01/26 06:18:58;;;;;;;18.57;7.03;;;;;;;-1.16;39.92;100470.22;3153034;28;20056;-60
2022/01/26 06:20:30;;;;;;;13.68;6.97;;;;;;;-1.13;39.88;100471.94;3144655;28;20052;-61
2022/01/26 06:22:02;;;;;;;15.05;6.60;;;;;;;-1.08;39.93;100472.88;3153491;28;20044;-59
2022/01/26 06:23:34;;;;;;;16.75;7.07;;;;;;;-1.04;39.79;100472.06;3152154;28;20048;-58
2022/01/26 06:25:07;;;;;;;18.30;6.85;;;;;;;-1.00;39.83;100473.84;3154026;28;20044;-59
2022/01/26 06:26:41;;;;;;;15.18;7.28;;;;;;;-0.95;39.84;100468.75;3151013;28;20055;-59
2022/01/26 06:28:15;;;;;;;;;;;;;;;-1.23;40.04;100449.69;3145591;28;20051;-60
2022/01/26 06:29:49;;;;;;;15.98;6.05;;;;;;;-0.96;40.00;100475.59;3147809;28;20020;-62
2022/01/26 06:31:26;;;;;;;13.80;6.60;;;;;;;-0.87;39.85;100476.53;3150487;28;20044;-60
2022/01/26 06:32:58;;;;;;;17.48;7.03;;;;;;;-0.80;39.86;100468.97;3146456;28;20064;-61
2022/01/26 06:34:30;;;;;;;17.13;6.63;;;;;;;-0.76;39.69;100470.72;3155778;28;20124;-61
2022/01/26 06:36:03;;;;;;;18.00;6.68;;;;;;;-0.68;39.63;100478.50;3147808;28;20080;-61
2022/01/26 06:37:35;;;;;;;14.85;7.13;;;;;;;-0.60;39.72;100474.28;3150155;28;20059;-60
2022/01/26 06:39:07;;;;;;;14.95;6.72;;;;;;;-0.44;39.62;100477.91;3154885;28;20070;-60
2022/01/26 06:40:39;;;;;;;16.60;6.57;;;;;;;-0.21;39.81;100464.44;3147369;28;20067;-59
2022/01/26 06:42:14;;;;;;;14.00;6.43;;;;;;;0.05;39.63;100472.38;3151461;28;20114;-60
2022/01/26 06:43:50;;;;;;;11.95;6.20;;;;;;;0.28;39.40;100470.84;3153087;28;20088;-59
2022/01/26 06:45:26;;;;;;;16.98;6.55;;;;;;;0.45;39.07;100476.09;3150082;28;20135;-61
2022/01/26 06:47:18;;;;;;;13.90;6.43;;;;;;;0.52;39.03;100475.28;3152019;28;20055;-61
2022/01/26 06:49:28;;;;;;;14.70;6.20;;;;;;;0.35;38.94;100441.84;3153498;28;20091;-62
2022/01/26 06:50:52;;;;;;;14.55;6.88;;;;;;;0.56;38.76;100476.16;3150566;28;20048;-62
2022/01/26 06:52:24;;;;;;;16.92;6.93;;;;;;;0.60;38.58;100472.78;3149667;28;20177;-62
2022/01/26 06:53:56;;;;;;;16.90;6.78;;;;;;;0.62;38.40;100476.19;3151403;28;20398;-62
2022/01/26 06:55:28;;;;;;;16.17;6.82;;;;;;;0.62;38.52;100477.06;3153027;28;20044;-61
2022/01/26 06:57:00;;;;;;;18.08;7.05;;;;;;;0.65;38.38;100484.78;3150593;28;20524;-62
2022/01/26 06:58:32;;;;;;;19.27;8.05;;;;;;;0.66;38.31;100478.78;3155038;28;20052;-62
2022/01/26 07:00:05;;;;;;;17.83;7.22;;;;;;;0.71;38.43;100477.94;3149595;28;20060;-61
2022/01/26 07:01:38;;;;;;;17.05;7.15;;;;;;;0.71;38.26;100476.25;3151117;28;20502;-61
2022/01/26 07:03:10;;;;;;;18.02;7.18;;;;;;;0.72;38.43;100487.38;3149130;28;20048;-61
2022/01/26 07:04:42;;;;;;;23.13;8.45;;;;;;;0.74;38.40;100478.84;3153914;28;20082;-61
2022/01/26 07:06:15;;;;;;;23.17;7.95;;;;;;;0.78;38.48;100487.41;3152932;28;20049;-61
2022/01/26 07:07:47;;;;;;;26.45;8.63;;;;;;;0.81;38.45;100487.41;3151393;28;20049;-61
2022/01/26 07:09:19;;;;;;;26.02;8.07;;;;;;;0.78;38.41;100479.72;3147338;28;20057;-61
2022/01/26 07:10:53;;;;;;;21.52;8.50;;;;;;;0.85;38.54;100484.88;3149677;28;20129;-61
2022/01/26 07:12:24;;;;;;;15.82;7.43;;;;;;;0.87;38.36;100485.75;3151466;28;20131;-62
2022/01/26 07:13:59;;;;;;;14.68;7.28;;;;;;;0.90;38.48;100493.44;3151562;28;20377;-62
2022/01/26 07:21:28;;;;;;;19.52;7.43;;;;;;;0.72;38.24;100452.34;3119868;28;20834;-62
2022/01/26 07:23:00;;;;;;;17.95;7.03;;;;;;;0.96;38.36;100481.50;3152111;28;20097;-62
2022/01/26 07:24:32;;;;;;;17.25;7.20;;;;;;;0.97;38.32;100486.63;3155908;28;20057;-61
2022/01/26 07:26:04;;;;;;;19.05;7.15;;;;;;;1.01;38.25;100475.56;3153456;28;20055;-61
2022/01/26 07:27:36;;;;;;;20.00;7.38;;;;;;;1.02;38.38;100476.41;3151143;28;20487;-62
2022/01/26 07:29:11;;;;;;;16.73;6.68;;;;;;;1.04;38.38;100474.72;3148799;28;20052;-60
2022/01/26 07:30:43;;;;;;;21.77;7.57;;;;;;;1.02;38.34;100484.09;3150559;28;20064;-60
2022/01/26 07:32:15;;;;;;;21.00;7.47;;;;;;;1.02;38.54;100478.97;3149659;28;20048;-61
2022/01/26 07:33:53;;;;;;;22.15;7.60;;;;;;;1.01;38.50;100472.16;3148832;28;20496;-62
2022/01/26 07:35:25;;;;;;;18.85;7.00;;;;;;;0.97;38.50;100467.84;3151124;28;20100;-61
2022/01/26 07:37:02;;;;;;;28.10;11.18;;;;;;;1.00;38.61;100483.22;3149823;28;20121;-61
2022/01/26 07:38:34;;;;;;;28.98;11.48;;;;;;;1.02;38.66;100477.25;3151751;28;20736;-61
2022/01/26 07:40:07;;;;;;;32.83;13.27;;;;;;;1.03;38.55;100478.97;3152354;28;20057;-61
2022/01/26 07:41:39;;;;;;;22.83;10.02;;;;;;;1.06;38.69;100486.69;3145866;28;20449;-62
2022/01/26 07:43:11;;;;;;;25.77;10.35;;;;;;;1.09;38.68;100480.69;3149783;28;20048;-61
2022/01/26 07:44:43;;;;;;;17.75;8.20;;;;;;;1.09;38.63;100475.56;3148131;28;20063;-62
2022/01/26 07:46:17;;;;;;;20.70;8.43;;;;;;;1.11;38.53;100472.16;3152938;28;20056;-62
2022/01/26 07:47:52;;;;;;;18.35;7.53;;;;;;;1.09;38.45;100476.44;3152011;28;20527;-61
2022/01/26 07:49:26;;;;;;;18.30;7.78;;;;;;;1.11;38.50;100476.44;3156300;28;20127;-62
2022/01/26 07:50:57;;;;;;;;;;;;;;;0.90;38.64;100469.50;3155539;28;20414;-60
2022/01/26 07:52:34;;;;;;;21.73;7.35;;;;;;;0.99;38.87;100472.13;3149410;28;19924;-60
2022/01/26 07:54:06;;;;;;;19.27;7.88;;;;;;;1.01;38.85;100469.56;3148454;28;20047;-60
2022/01/26 07:55:38;;;;;;;21.27;8.32;;;;;;;1.09;38.86;100467.88;3155681;28;20093;-61
2022/01/26 07:57:11;;;;;;;19.60;8.13;;;;;;;1.13;38.84;100472.19;3155106;28;20532;-61
2022/01/26 07:58:43;;;;;;;21.73;10.02;;;;;;;1.16;38.95;100481.63;3151108;28;20043;-62
2022/01/26 08:00:16;;;;;;;20.48;10.10;;;;;;;1.19;38.96;100472.22;3156122;28;20048;-63
2022/01/26 08:01:47;;;;;;;20.98;9.20;;;;;;;1.20;39.07;100470.50;3156009;28;20109;-62
2022/01/26 08:03:19;;;;;;;20.33;8.45;;;;;;;1.22;39.02;100472.22;3155274;28;20452;-62
2022/01/26 08:04:52;;;;;;;27.80;11.35;;;;;;;1.26;39.20;100475.66;3148034;28;20129;-62
2022/01/26 08:06:24;;;;;;;24.58;8.80;;;;;;;1.25;38.96;100472.22;3148418;28;20056;-62
2022/01/26 08:07:56;;;;;;;31.02;10.60;;;;;;;1.30;39.19;100477.38;3154796;28;20052;-62
2022/01/26 08:09:28;;;;;;;27.02;10.88;;;;;;;1.17;39.25;100449.97;3154157;28;20101;-62
2022/01/26 08:11:00;;;;;;;28.30;11.00;;;;;;;1.36;39.21;100475.69;3154214;28;20074;-62
2022/01/26 08:12:32;;;;;;;22.08;9.55;;;;;;;1.34;39.23;100467.13;3153482;28;20059;-62
2022/01/26 08:14:04;;;;;;;23.33;10.48;;;;;;;1.39;39.36;100469.72;3154407;28;20106;-62
2022/01/26 08:15:36;;;;;;;25.98;10.95;;;;;;;1.43;39.30;100478.28;3154201;28;20044;-61
2022/01/26 08:17:09;;;;;;;23.15;10.65;;;;;;;1.44;39.40;100475.69;3150634;28;20063;-62
2022/01/26 08:18:41;;;;;;;20.73;9.63;;;;;;;1.47;39.40;100470.56;3154102;28;20097;-62
2022/01/26 08:20:14;;;;;;;25.77;10.93;;;;;;;1.52;39.22;100471.44;3147646;28;20082;-62